createdAt,value
2018-12-16T00:00:52.783Z,22.30
2018-12-16T00:01:52.794Z,24.40
2018-12-16T00:02:52.802Z,22.50
2018-12-16T00:03:52.810Z,21.40
2018-12-16T00:04:53.180Z,21.30
2018-12-16T00:05:52.827Z,24.90
2018-12-16T00:06:52.830Z,24.00
2018-12-16T00:07:52.839Z,21.60
2018-12-16T00:08:52.847Z,21.60
2018-12-16T00:09:52.858Z,20.50
2018-12-16T00:10:52.859Z,21.60
2018-12-16T00:11:52.873Z,20.80
2018-12-16T00:12:52.875Z,23.60
2018-12-16T00:13:52.883Z,22.50
2018-12-16T00:14:52.892Z,19.70
2018-12-16T00:15:52.898Z,21.20
2018-12-16T00:16:52.906Z,23.20
2018-12-16T00:17:52.915Z,21.70
2018-12-16T00:18:52.922Z,22.40
2018-12-16T00:19:52.931Z,22.90
2018-12-16T00:20:52.935Z,24.50
2018-12-16T00:21:52.945Z,24.80
2018-12-16T00:22:52.959Z,25.70
2018-12-16T00:23:52.958Z,24.00
2018-12-16T00:24:52.972Z,23.40
2018-12-16T00:25:52.979Z,22.70
2018-12-16T00:26:53.121Z,23.00
2018-12-16T00:27:52.988Z,23.80
2018-12-16T00:28:52.996Z,25.20
2018-12-16T00:29:53.007Z,23.40
2018-12-16T00:30:53.011Z,22.30
2018-12-16T00:31:53.018Z,23.70
2018-12-16T00:32:53.029Z,20.20
2018-12-16T00:33:53.036Z,22.80
2018-12-16T00:34:53.043Z,23.40
2018-12-16T00:35:53.050Z,22.90
2018-12-16T00:36:53.060Z,21.90
2018-12-16T00:37:53.064Z,21.70
2018-12-16T00:38:53.071Z,23.00
2018-12-16T00:39:53.086Z,22.50
2018-12-16T00:40:53.090Z,22.60
2018-12-16T00:41:53.099Z,22.40
2018-12-16T00:42:53.106Z,21.10
2018-12-16T00:43:53.113Z,24.20
2018-12-16T00:44:53.123Z,22.00
2018-12-16T00:45:53.132Z,21.60
2018-12-16T00:46:53.137Z,22.20
2018-12-16T00:47:53.142Z,24.90
2018-12-16T00:48:53.155Z,23.90
2018-12-16T00:49:53.160Z,24.00
2018-12-16T00:50:53.167Z,21.60
2018-12-16T00:51:53.176Z,20.60
2018-12-16T00:52:53.181Z,21.10
2018-12-16T00:53:53.192Z,22.20
2018-12-16T00:54:53.200Z,24.10
2018-12-16T00:55:53.203Z,22.20
2018-12-16T00:56:53.218Z,20.50
2018-12-16T00:57:53.438Z,20.40
2018-12-16T00:58:53.230Z,22.60
2018-12-16T00:59:53.434Z,19.80
2018-12-16T01:00:53.241Z,21.80
2018-12-16T01:01:53.252Z,22.30
2018-12-16T01:02:53.257Z,21.10
2018-12-16T01:03:53.263Z,21.20
2018-12-16T01:04:53.278Z,23.00
2018-12-16T01:05:53.283Z,20.40
2018-12-16T01:06:53.287Z,20.20
2018-12-16T01:07:53.294Z,22.70
2018-12-16T01:08:53.306Z,21.90
2018-12-16T01:09:53.312Z,22.70
2018-12-16T01:10:53.317Z,20.40
2018-12-16T01:11:53.327Z,20.60
2018-12-16T01:12:53.332Z,21.50
2018-12-16T01:13:53.343Z,22.60
2018-12-16T01:14:53.347Z,22.80
2018-12-16T01:15:53.359Z,22.90
2018-12-16T01:16:53.371Z,21.00
2018-12-16T01:17:53.372Z,22.60
2018-12-16T01:18:53.378Z,22.40
2018-12-16T01:19:53.393Z,19.70
2018-12-16T01:20:53.398Z,21.40
2018-12-16T01:21:53.406Z,21.50
2018-12-16T01:22:53.414Z,21.60
2018-12-16T01:23:53.418Z,21.50
2018-12-16T01:24:53.428Z,20.70
2018-12-16T01:25:53.436Z,20.00
2018-12-16T01:26:53.442Z,20.60
2018-12-16T01:27:53.452Z,21.70
2018-12-16T01:28:53.457Z,20.70
2018-12-16T01:29:53.470Z,21.20
2018-12-16T01:30:53.473Z,21.90
2018-12-16T01:31:53.483Z,19.70
2018-12-16T01:32:53.491Z,19.90
2018-12-16T01:33:53.497Z,21.40
2018-12-16T01:34:53.509Z,21.50
2018-12-16T01:35:53.516Z,21.80
2018-12-16T01:36:53.519Z,20.70
2018-12-16T01:37:53.531Z,21.20
2018-12-16T01:38:53.536Z,20.20
2018-12-16T01:39:53.548Z,20.30
2018-12-16T01:40:53.552Z,22.20
2018-12-16T01:41:53.560Z,19.70
2018-12-16T01:42:53.618Z,21.60
2018-12-16T01:43:53.575Z,20.50
2018-12-16T01:44:53.586Z,20.70
2018-12-16T01:45:53.644Z,20.60
2018-12-16T01:46:53.598Z,21.80
2018-12-16T01:47:53.609Z,21.50
2018-12-16T01:48:53.613Z,21.10
2018-12-16T01:49:53.622Z,23.10
2018-12-16T01:50:53.628Z,21.80
2018-12-16T01:51:53.640Z,21.40
2018-12-16T01:52:53.646Z,18.80
2018-12-16T01:53:53.655Z,19.30
2018-12-16T01:54:53.662Z,22.00
2018-12-16T01:55:53.673Z,19.90
2018-12-16T01:56:53.690Z,20.90
2018-12-16T01:57:53.688Z,22.80
2018-12-16T01:58:53.700Z,19.70
2018-12-16T01:59:53.710Z,21.10
2018-12-16T02:00:53.711Z,23.00
2018-12-16T02:01:53.717Z,21.50
2018-12-16T02:02:53.823Z,20.20
2018-12-16T02:03:53.735Z,21.90
2018-12-16T02:04:53.742Z,21.60
2018-12-16T02:05:53.747Z,20.10
2018-12-16T02:06:53.757Z,21.70
2018-12-16T02:07:53.763Z,21.20
2018-12-16T02:08:53.773Z,22.20
2018-12-16T02:09:53.777Z,22.20
2018-12-16T02:10:53.791Z,21.80
2018-12-16T02:11:53.799Z,19.20
2018-12-16T02:12:53.803Z,21.80
2018-12-16T02:13:53.808Z,20.70
2018-12-16T02:14:53.819Z,20.50
2018-12-16T02:15:53.833Z,21.00
2018-12-16T02:16:53.887Z,20.10
2018-12-16T02:17:53.841Z,21.70
2018-12-16T02:18:53.849Z,20.30
2018-12-16T02:19:53.859Z,19.60
2018-12-16T02:20:53.872Z,19.20
2018-12-16T02:21:53.878Z,21.90
2018-12-16T02:22:56.923Z,19.80
2018-12-16T02:23:53.891Z,19.70
2018-12-16T02:24:53.896Z,19.20
2018-12-16T02:25:53.908Z,20.40
2018-12-16T02:26:53.912Z,20.10
2018-12-16T02:27:53.922Z,21.20
2018-12-16T02:28:53.930Z,18.70
2018-12-16T02:29:53.937Z,21.40
2018-12-16T02:30:54.210Z,22.20
2018-12-16T02:31:53.964Z,22.20
2018-12-16T02:32:54.063Z,21.70
2018-12-16T02:33:53.967Z,20.80
2018-12-16T02:34:53.973Z,20.80
2018-12-16T02:35:53.988Z,20.90
2018-12-16T02:36:53.994Z,18.90
2018-12-16T02:37:54.008Z,22.00
2018-12-16T02:38:54.006Z,20.50
2018-12-16T02:39:54.013Z,18.60
2018-12-16T02:40:54.035Z,20.70
2018-12-16T02:41:54.038Z,20.80
2018-12-16T02:42:54.046Z,22.20
2018-12-16T02:43:54.045Z,20.00
2018-12-16T02:44:54.058Z,20.50
2018-12-16T02:45:54.064Z,20.50
2018-12-16T02:46:54.076Z,21.40
2018-12-16T02:47:54.079Z,20.00
2018-12-16T02:48:54.086Z,21.20
2018-12-16T02:49:54.093Z,21.40
2018-12-16T02:50:54.102Z,20.50
2018-12-16T02:51:54.109Z,21.10
2018-12-16T02:52:54.117Z,19.80
2018-12-16T02:53:54.325Z,21.30
2018-12-16T02:54:54.130Z,19.30
2018-12-16T02:55:54.139Z,22.10
2018-12-16T02:56:54.164Z,21.20
2018-12-16T02:57:54.155Z,20.50
2018-12-16T02:58:54.165Z,20.20
2018-12-16T02:59:54.171Z,22.30
2018-12-16T03:00:54.180Z,21.50
2018-12-16T03:01:54.188Z,21.50
2018-12-16T03:02:54.200Z,22.00
2018-12-16T03:03:54.203Z,20.10
2018-12-16T03:04:54.213Z,21.10
2018-12-16T03:05:54.225Z,20.40
2018-12-16T03:06:54.225Z,21.20
2018-12-16T03:07:54.237Z,20.20
2018-12-16T03:08:54.241Z,22.70
2018-12-16T03:09:54.250Z,20.30
2018-12-16T03:10:54.267Z,21.00
2018-12-16T03:11:54.267Z,21.80
2018-12-16T03:12:54.273Z,21.00
2018-12-16T03:13:54.327Z,22.20
2018-12-16T03:15:54.298Z,19.20
2018-12-16T03:16:54.306Z,20.40
2018-12-16T03:17:54.319Z,19.40
2018-12-16T03:18:54.328Z,19.60
2018-12-16T03:19:54.330Z,20.50
2018-12-16T03:20:54.337Z,21.60
2018-12-16T03:21:54.348Z,20.10
2018-12-16T03:22:54.354Z,20.30
2018-12-16T03:23:54.368Z,21.00
2018-12-16T03:24:54.389Z,19.30
2018-12-16T03:25:54.378Z,20.60
2018-12-16T03:26:54.405Z,20.20
2018-12-16T03:27:54.396Z,21.70
2018-12-16T03:28:54.401Z,19.70
2018-12-16T03:29:54.408Z,19.60
2018-12-16T03:30:54.424Z,19.60
2018-12-16T03:31:54.438Z,20.40
2018-12-16T03:32:54.441Z,21.00
2018-12-16T03:33:54.441Z,22.00
2018-12-16T03:34:54.455Z,21.80
2018-12-16T03:35:54.456Z,20.00
2018-12-16T03:36:54.463Z,20.30
2018-12-16T03:37:54.475Z,19.40
2018-12-16T03:38:54.478Z,20.90
2018-12-16T03:39:54.495Z,19.30
2018-12-16T03:40:54.498Z,20.30
2018-12-16T03:41:54.519Z,20.70
2018-12-16T03:42:54.602Z,20.50
2018-12-16T03:43:54.520Z,19.10
2018-12-16T03:44:54.530Z,18.70
2018-12-16T03:45:54.541Z,20.60
2018-12-16T03:46:54.548Z,19.20
2018-12-16T03:47:54.560Z,18.60
2018-12-16T03:48:54.563Z,19.80
2018-12-16T03:49:54.568Z,19.90
2018-12-16T03:50:54.581Z,20.50
2018-12-16T03:51:54.588Z,17.30
2018-12-16T03:52:54.595Z,19.00
2018-12-16T03:53:54.600Z,18.40
2018-12-16T03:54:54.608Z,19.60
2018-12-16T03:55:54.621Z,19.00
2018-12-16T03:56:54.632Z,18.20
2018-12-16T03:57:54.635Z,19.70
2018-12-16T03:58:54.640Z,18.80
2018-12-16T03:59:54.649Z,20.60
2018-12-16T04:00:54.662Z,19.10
2018-12-16T04:01:54.667Z,18.60
2018-12-16T04:02:54.674Z,18.70
2018-12-16T04:03:54.687Z,18.50
2018-12-16T04:04:54.694Z,19.10
2018-12-16T04:05:54.700Z,20.20
2018-12-16T04:06:54.709Z,20.50
2018-12-16T04:07:54.719Z,20.90
2018-12-16T04:08:54.725Z,18.80
2018-12-16T04:09:54.730Z,20.30
2018-12-16T04:10:54.743Z,20.80
2018-12-16T04:11:55.098Z,19.60
2018-12-16T04:12:54.758Z,20.70
2018-12-16T04:13:54.964Z,19.60
2018-12-16T04:14:54.777Z,18.80
2018-12-16T04:15:54.779Z,21.10
2018-12-16T04:16:54.792Z,19.60
2018-12-16T04:17:54.797Z,20.90
2018-12-16T04:18:54.807Z,21.10
2018-12-16T04:19:54.810Z,20.00
2018-12-16T04:20:54.818Z,20.90
2018-12-16T04:21:54.886Z,21.10
2018-12-16T04:22:54.889Z,20.20
2018-12-16T04:23:54.845Z,21.70
2018-12-16T04:24:54.854Z,18.80
2018-12-16T04:25:55.062Z,23.70
2018-12-16T04:26:54.867Z,21.20
2018-12-16T04:27:54.877Z,20.60
2018-12-16T04:28:54.892Z,21.60
2018-12-16T04:29:54.896Z,21.40
2018-12-16T04:30:54.902Z,21.10
2018-12-16T04:31:55.116Z,22.80
2018-12-16T04:32:54.969Z,21.90
2018-12-16T04:33:54.928Z,22.70
2018-12-16T04:34:54.936Z,23.30
2018-12-16T04:35:54.947Z,23.00
2018-12-16T04:36:54.958Z,23.10
2018-12-16T04:37:54.958Z,25.50
2018-12-16T04:38:54.966Z,22.40
2018-12-16T04:39:54.977Z,23.50
2018-12-16T04:40:55.003Z,23.90
2018-12-16T04:41:54.993Z,20.50
2018-12-16T04:42:55.003Z,20.90
2018-12-16T04:43:55.007Z,24.00
2018-12-16T04:44:55.017Z,24.30
2018-12-16T04:45:55.027Z,22.50
2018-12-16T04:46:55.036Z,23.00
2018-12-16T04:47:55.120Z,22.50
2018-12-16T04:48:55.052Z,22.60
2018-12-16T04:49:55.059Z,24.00
2018-12-16T04:50:55.067Z,25.80
2018-12-16T04:51:55.073Z,21.50
2018-12-16T04:52:55.084Z,25.10
2018-12-16T04:53:55.096Z,23.20
2018-12-16T04:54:55.205Z,22.80
2018-12-16T04:55:55.110Z,22.40
2018-12-16T04:56:55.117Z,23.20
2018-12-16T04:57:55.126Z,25.00
2018-12-16T04:58:55.129Z,24.90
2018-12-16T04:59:55.137Z,23.70
2018-12-16T05:00:55.152Z,24.40
2018-12-16T05:01:55.158Z,24.10
2018-12-16T05:02:55.167Z,22.20
2018-12-16T05:03:55.239Z,24.30
2018-12-16T05:04:55.180Z,23.90
2018-12-16T05:05:55.191Z,25.60
2018-12-16T05:06:55.196Z,24.70
2018-12-16T05:07:55.209Z,23.50
2018-12-16T05:08:55.212Z,23.70
2018-12-16T05:09:55.221Z,26.10
2018-12-16T05:10:55.347Z,26.50
2018-12-16T05:11:55.242Z,26.60
2018-12-16T05:12:55.268Z,25.50
2018-12-16T05:13:55.258Z,23.70
2018-12-16T05:14:55.267Z,26.40
2018-12-16T05:15:55.279Z,25.40
2018-12-16T05:16:55.281Z,25.20
2018-12-16T05:17:55.352Z,24.20
2018-12-16T05:18:55.298Z,26.70
2018-12-16T05:19:55.360Z,24.50
2018-12-16T05:20:55.315Z,24.60
2018-12-16T05:21:55.325Z,27.70
2018-12-16T05:22:55.331Z,28.90
2018-12-16T05:23:55.341Z,27.40
2018-12-16T05:24:55.351Z,26.30
2018-12-16T05:25:55.359Z,26.40
2018-12-16T05:26:55.364Z,24.00
2018-12-16T05:27:55.371Z,27.50
2018-12-16T05:28:55.381Z,25.90
2018-12-16T05:29:55.387Z,25.50
2018-12-16T05:30:55.398Z,26.90
2018-12-16T05:31:55.407Z,25.50
2018-12-16T05:32:55.416Z,26.40
2018-12-16T05:33:55.420Z,26.50
2018-12-16T05:34:55.425Z,26.30
2018-12-16T05:35:55.440Z,25.20
2018-12-16T05:36:55.465Z,27.30
2018-12-16T05:37:55.458Z,27.10
2018-12-16T05:38:55.464Z,26.90
2018-12-16T05:39:55.472Z,29.30
2018-12-16T05:40:55.480Z,28.10
2018-12-16T05:41:55.487Z,29.10
2018-12-16T05:42:55.493Z,28.30
2018-12-16T05:43:55.505Z,29.40
2018-12-16T05:44:55.510Z,29.70
2018-12-16T05:45:55.523Z,30.40
2018-12-16T05:46:55.528Z,30.10
2018-12-16T05:47:55.538Z,29.10
2018-12-16T05:48:55.546Z,30.70
2018-12-16T05:50:55.910Z,30.30
2018-12-16T05:51:55.598Z,32.60
2018-12-16T05:52:55.575Z,32.30
2018-12-16T05:53:55.592Z,31.80
2018-12-16T05:54:55.594Z,31.80
2018-12-16T05:55:55.600Z,32.20
2018-12-16T05:56:55.608Z,30.70
2018-12-16T05:57:55.618Z,32.50
2018-12-16T05:58:55.627Z,32.60
2018-12-16T05:59:55.631Z,32.60
2018-12-16T06:00:55.638Z,31.80
2018-12-16T06:01:55.646Z,32.80
2018-12-16T06:03:56.050Z,33.90
2018-12-16T06:04:55.959Z,33.30
2018-12-16T06:05:55.679Z,34.00
2018-12-16T06:06:55.696Z,34.10
2018-12-16T06:07:55.694Z,33.90
2018-12-16T06:08:55.702Z,34.50
2018-12-16T06:09:55.712Z,33.30
2018-12-16T06:10:55.717Z,34.50
2018-12-16T06:11:55.728Z,34.10
2018-12-16T06:12:55.738Z,34.30
2018-12-16T06:13:55.747Z,35.50
2018-12-16T06:14:55.754Z,37.70
2018-12-16T06:15:55.761Z,36.00
2018-12-16T06:16:55.766Z,33.90
2018-12-16T06:17:55.784Z,32.60
2018-12-16T06:18:55.783Z,32.40
2018-12-16T06:19:55.798Z,33.40
2018-12-16T06:20:55.805Z,34.60
2018-12-16T06:21:55.810Z,33.10
2018-12-16T06:22:55.823Z,36.80
2018-12-16T06:23:56.002Z,33.70
2018-12-16T06:24:55.831Z,34.30
2018-12-16T06:25:55.837Z,34.60
2018-12-16T06:26:55.846Z,32.20
2018-12-16T06:27:55.852Z,32.20
2018-12-16T06:28:55.865Z,34.00
2018-12-16T06:29:55.871Z,31.80
2018-12-16T06:30:55.878Z,33.00
2018-12-16T06:31:55.886Z,34.30
2018-12-16T06:32:55.892Z,32.20
2018-12-16T06:33:55.900Z,32.90
2018-12-16T06:34:55.911Z,30.50
2018-12-16T06:35:55.917Z,32.50
2018-12-16T06:36:55.927Z,32.60
2018-12-16T06:37:55.940Z,32.60
2018-12-16T06:38:55.941Z,30.90
2018-12-16T06:39:55.947Z,32.50
2018-12-16T06:40:55.956Z,30.70
2018-12-16T06:41:55.967Z,33.60
2018-12-16T06:42:56.063Z,29.50
2018-12-16T06:43:55.980Z,29.70
2018-12-16T06:44:55.996Z,33.40
2018-12-16T06:45:55.997Z,34.30
2018-12-16T06:46:56.209Z,31.20
2018-12-16T06:47:56.018Z,30.80
2018-12-16T06:48:56.019Z,30.90
2018-12-16T06:49:56.030Z,30.90
2018-12-16T06:50:56.035Z,30.00
2018-12-16T06:51:56.044Z,33.30
2018-12-16T06:52:56.050Z,32.00
2018-12-16T06:54:02.132Z,32.70
2018-12-16T06:54:56.081Z,33.40
2018-12-16T06:55:56.276Z,32.80
2018-12-16T06:56:56.083Z,30.90
2018-12-16T06:57:56.092Z,31.70
2018-12-16T06:58:56.095Z,32.20
2018-12-16T06:59:56.105Z,31.30
2018-12-16T07:00:56.117Z,30.90
2018-12-16T07:01:56.125Z,31.40
2018-12-16T07:02:56.135Z,29.20
2018-12-16T07:03:56.136Z,31.90
2018-12-16T07:04:56.144Z,31.70
2018-12-16T07:05:56.158Z,30.20
2018-12-16T07:06:56.161Z,30.00
2018-12-16T07:07:56.168Z,31.90
2018-12-16T07:08:56.175Z,31.30
2018-12-16T07:09:56.185Z,31.80
2018-12-16T07:10:56.191Z,33.30
2018-12-16T07:11:56.207Z,33.30
2018-12-16T07:12:56.207Z,30.80
2018-12-16T07:13:56.216Z,30.70
2018-12-16T07:14:56.226Z,31.70
2018-12-16T07:15:56.234Z,31.40
2018-12-16T07:16:56.239Z,32.80
2018-12-16T07:17:56.249Z,32.40
2018-12-16T07:18:56.267Z,32.10
2018-12-16T07:19:56.276Z,30.10
2018-12-16T07:20:56.275Z,32.40
2018-12-16T07:21:56.286Z,30.50
2018-12-16T07:22:56.320Z,31.50
2018-12-16T07:23:56.315Z,33.10
2018-12-16T07:24:56.352Z,36.90
2018-12-16T07:25:56.327Z,32.70
2018-12-16T07:26:56.342Z,34.10
2018-12-16T07:27:56.325Z,32.40
2018-12-16T07:28:56.332Z,32.60
2018-12-16T07:29:56.343Z,31.40
2018-12-16T07:30:56.352Z,32.70
2018-12-16T07:31:56.474Z,34.20
2018-12-16T07:32:56.401Z,33.70
2018-12-16T07:33:56.374Z,33.30
2018-12-16T07:34:56.379Z,34.40
2018-12-16T07:35:56.387Z,34.90
2018-12-16T07:36:56.394Z,31.20
2018-12-16T07:37:56.436Z,33.30
2018-12-16T07:38:56.417Z,33.00
2018-12-16T07:39:56.422Z,33.70
2018-12-16T07:40:56.425Z,34.10
2018-12-16T07:41:56.489Z,33.30
2018-12-16T07:42:56.460Z,34.60
2018-12-16T07:43:56.457Z,35.10
2018-12-16T07:44:56.476Z,32.10
2018-12-16T07:45:56.471Z,35.10
2018-12-16T07:46:56.514Z,33.90
2018-12-16T07:47:56.485Z,32.10
2018-12-16T07:48:56.492Z,35.30
2018-12-16T07:49:56.505Z,35.80
2018-12-16T07:50:56.532Z,33.70
2018-12-16T07:51:56.519Z,35.00
2018-12-16T07:52:57.115Z,33.40
2018-12-16T07:53:56.534Z,34.50
2018-12-16T07:54:56.547Z,34.00
2018-12-16T07:55:56.679Z,34.00
2018-12-16T07:56:56.867Z,34.90
2018-12-16T07:57:56.565Z,35.70
2018-12-16T07:58:56.567Z,35.60
2018-12-16T07:59:56.578Z,34.90
2018-12-16T08:00:56.790Z,37.20
2018-12-16T08:01:56.631Z,33.00
2018-12-16T08:02:56.635Z,34.80
2018-12-16T08:03:56.632Z,34.00
2018-12-16T08:04:56.639Z,34.60
2018-12-16T08:05:56.625Z,34.90
2018-12-16T08:06:56.638Z,37.50
2018-12-16T08:07:56.843Z,33.30
2018-12-16T08:08:56.653Z,36.50
2018-12-16T08:09:56.659Z,35.60
2018-12-16T08:10:56.667Z,36.00
2018-12-16T08:11:56.676Z,35.70
2018-12-16T08:12:56.685Z,33.30
2018-12-16T08:13:56.692Z,33.90
2018-12-16T08:14:56.702Z,35.50
2018-12-16T08:15:56.698Z,34.00
2018-12-16T08:16:56.711Z,34.50
2018-12-16T08:17:56.712Z,31.40
2018-12-16T08:18:56.723Z,37.40
2018-12-16T08:19:56.727Z,35.10
2018-12-16T08:20:56.739Z,32.50
2018-12-16T08:21:56.748Z,33.80
2018-12-16T08:22:56.757Z,36.50
2018-12-16T08:23:56.763Z,37.40
2018-12-16T08:24:56.771Z,36.00
2018-12-16T08:25:56.779Z,35.50
2018-12-16T08:26:56.786Z,37.10
2018-12-16T08:27:56.793Z,36.10
2018-12-16T08:28:56.803Z,32.10
2018-12-16T08:29:56.816Z,36.20
2018-12-16T08:30:56.819Z,35.10
2018-12-16T08:31:56.823Z,35.50
2018-12-16T08:32:56.834Z,35.80
2018-12-16T08:33:56.844Z,31.10
2018-12-16T08:34:56.955Z,35.60
2018-12-16T08:35:56.864Z,35.20
2018-12-16T08:36:56.865Z,34.00
2018-12-16T08:37:56.872Z,34.70
2018-12-16T08:38:56.882Z,33.70
2018-12-16T08:39:56.890Z,33.50
2018-12-16T08:40:56.899Z,35.40
2018-12-16T08:41:56.909Z,34.00
2018-12-16T08:42:56.961Z,33.60
2018-12-16T08:43:56.973Z,33.80
2018-12-16T08:44:57.045Z,36.30
2018-12-16T08:45:56.949Z,31.80
2018-12-16T08:46:57.025Z,33.90
2018-12-16T08:47:56.970Z,32.20
2018-12-16T08:48:56.966Z,32.90
2018-12-16T08:49:56.973Z,33.70
2018-12-16T08:50:56.978Z,33.70
2018-12-16T08:51:56.987Z,32.30
2018-12-16T08:52:56.995Z,33.70
2018-12-16T08:53:57.007Z,33.40
2018-12-16T08:54:57.016Z,34.70
2018-12-16T08:55:57.953Z,36.30
2018-12-16T08:56:57.031Z,35.90
2018-12-16T08:57:57.036Z,33.50
2018-12-16T08:58:57.044Z,33.20
2018-12-16T08:59:57.059Z,34.20
2018-12-16T09:00:57.061Z,33.90
2018-12-16T09:01:57.068Z,35.50
2018-12-16T09:02:57.077Z,33.90
2018-12-16T09:03:57.084Z,32.90
2018-12-16T09:04:57.096Z,31.40
2018-12-16T09:05:57.111Z,31.50
2018-12-16T09:06:57.111Z,34.00
2018-12-16T09:07:57.119Z,32.80
2018-12-16T09:08:57.131Z,36.00
2018-12-16T09:09:57.137Z,35.30
2018-12-16T09:10:57.140Z,35.00
2018-12-16T09:11:57.161Z,31.20
2018-12-16T09:12:57.160Z,34.20
2018-12-16T09:13:57.171Z,34.20
2018-12-16T09:14:57.407Z,32.70
2018-12-16T09:15:57.193Z,31.40
2018-12-16T09:16:57.193Z,34.40
2018-12-16T09:17:57.205Z,35.20
2018-12-16T09:18:57.218Z,35.60
2018-12-16T09:19:57.222Z,32.90
2018-12-16T09:20:57.227Z,32.40
2018-12-16T09:21:57.236Z,35.80
2018-12-16T09:22:57.242Z,36.90
2018-12-16T09:23:57.247Z,36.30
2018-12-16T09:24:57.260Z,35.50
2018-12-16T09:25:57.265Z,35.20
2018-12-16T09:26:57.274Z,34.90
2018-12-16T09:27:57.283Z,35.50
2018-12-16T09:28:57.294Z,37.20
2018-12-16T09:29:57.326Z,35.20
2018-12-16T09:30:58.198Z,36.10
2018-12-16T09:31:57.319Z,35.00
2018-12-16T09:32:57.329Z,37.20
2018-12-16T09:33:57.331Z,34.20
2018-12-16T09:34:57.341Z,35.90
2018-12-16T09:35:57.348Z,37.50
2018-12-16T09:36:57.360Z,35.50
2018-12-16T09:37:57.817Z,35.50
2018-12-16T09:38:57.371Z,38.80
2018-12-16T09:39:57.386Z,37.40
2018-12-16T09:40:57.392Z,36.30
2018-12-16T09:41:57.887Z,36.00
2018-12-16T09:42:57.420Z,37.50
2018-12-16T09:43:57.563Z,38.20
2018-12-16T09:44:57.427Z,37.60
2018-12-16T09:45:57.431Z,36.30
2018-12-16T09:46:57.447Z,37.30
2018-12-16T09:47:57.453Z,35.40
2018-12-16T09:48:57.529Z,37.80
2018-12-16T09:49:57.465Z,35.60
2018-12-16T09:50:57.472Z,37.10
2018-12-16T09:51:57.485Z,36.40
2018-12-16T09:52:57.497Z,35.00
2018-12-16T09:53:57.499Z,34.50
2018-12-16T09:54:57.506Z,33.20
2018-12-16T09:55:57.518Z,34.10
2018-12-16T09:56:57.731Z,33.20
2018-12-16T09:57:57.533Z,34.30
2018-12-16T09:58:57.551Z,35.00
2018-12-16T09:59:57.551Z,37.70
2018-12-16T10:00:57.557Z,36.40
2018-12-16T10:01:57.570Z,36.40
2018-12-16T10:02:57.578Z,36.50
2018-12-16T10:03:57.586Z,36.00
2018-12-16T10:04:57.794Z,35.80
2018-12-16T10:05:57.603Z,34.90
2018-12-16T10:06:57.608Z,35.90
2018-12-16T10:07:57.622Z,36.10
2018-12-16T10:08:57.630Z,34.60
2018-12-16T10:09:57.700Z,35.10
2018-12-16T10:10:57.644Z,37.70
2018-12-16T10:11:57.656Z,41.40
2018-12-16T10:12:57.672Z,37.00
2018-12-16T10:13:57.671Z,35.70
2018-12-16T10:14:57.680Z,36.20
2018-12-16T10:15:57.687Z,33.20
2018-12-16T10:16:57.696Z,34.00
2018-12-16T10:17:57.712Z,32.40
2018-12-16T10:18:57.715Z,35.10
2018-12-16T10:19:57.724Z,35.20
2018-12-16T10:20:57.874Z,32.90
2018-12-16T10:21:57.738Z,34.30
2018-12-16T10:22:57.749Z,38.00
2018-12-16T10:23:57.758Z,33.70
2018-12-16T10:24:57.771Z,33.30
2018-12-16T10:25:57.776Z,32.70
2018-12-16T10:26:57.871Z,31.70
2018-12-16T10:27:58.260Z,34.40
2018-12-16T10:28:57.805Z,32.40
2018-12-16T10:29:57.810Z,34.80
2018-12-16T10:30:57.817Z,35.70
2018-12-16T10:31:57.828Z,34.20
2018-12-16T10:32:57.837Z,34.70
2018-12-16T10:33:57.849Z,35.00
2018-12-16T10:34:57.855Z,33.40
2018-12-16T10:35:57.861Z,36.00
2018-12-16T10:36:57.872Z,32.20
2018-12-16T10:37:57.886Z,34.80
2018-12-16T10:38:57.887Z,34.00
2018-12-16T10:39:57.899Z,34.40
2018-12-16T10:40:57.904Z,34.50
2018-12-16T10:41:57.919Z,34.50
2018-12-16T10:42:57.921Z,37.90
2018-12-16T10:43:57.931Z,34.40
2018-12-16T10:44:57.947Z,33.90
2018-12-16T10:45:57.952Z,33.90
2018-12-16T10:46:58.206Z,35.10
2018-12-16T10:47:57.966Z,36.70
2018-12-16T10:49:04.566Z,34.30
2018-12-16T10:49:57.986Z,35.00
2018-12-16T10:50:58.005Z,35.90
2018-12-16T10:51:58.000Z,36.60
2018-12-16T10:52:58.011Z,35.50
2018-12-16T10:53:58.021Z,36.70
2018-12-16T10:54:58.629Z,37.20
2018-12-16T10:55:58.038Z,38.50
2018-12-16T10:56:58.050Z,37.00
2018-12-16T10:57:58.058Z,34.80
2018-12-16T10:58:58.062Z,35.40
2018-12-16T10:59:58.072Z,34.40
2018-12-16T11:00:58.096Z,37.70
2018-12-16T11:01:58.092Z,33.60
2018-12-16T11:02:58.100Z,35.10
2018-12-16T11:03:58.126Z,34.70
2018-12-16T11:04:58.115Z,34.40
2018-12-16T11:05:58.330Z,34.70
2018-12-16T11:06:58.131Z,36.50
2018-12-16T11:07:58.143Z,36.40
2018-12-16T11:08:58.151Z,37.20
2018-12-16T11:09:58.162Z,35.40
2018-12-16T11:10:58.170Z,39.10
2018-12-16T11:11:58.178Z,37.60
2018-12-16T11:12:58.186Z,36.50
2018-12-16T11:13:58.193Z,35.70
2018-12-16T11:14:58.204Z,35.40
2018-12-16T11:15:58.214Z,38.20
2018-12-16T11:16:58.222Z,36.10
2018-12-16T11:17:58.232Z,38.00
2018-12-16T11:18:58.260Z,38.90
2018-12-16T11:19:58.251Z,36.80
2018-12-16T11:20:58.256Z,38.00
2018-12-16T11:21:58.271Z,33.20
2018-12-16T11:22:58.329Z,40.90
2018-12-16T11:23:58.284Z,36.20
2018-12-16T11:25:05.453Z,36.80
2018-12-16T11:25:58.301Z,34.30
2018-12-16T11:26:58.311Z,35.60
2018-12-16T11:27:58.325Z,37.30
2018-12-16T11:28:58.331Z,34.10
2018-12-16T11:29:58.340Z,37.50
2018-12-16T11:30:58.345Z,33.70
2018-12-16T11:31:58.363Z,34.70
2018-12-16T11:32:58.366Z,36.90
2018-12-16T11:33:58.377Z,36.90
2018-12-16T11:34:58.398Z,35.60
2018-12-16T11:35:58.390Z,36.30
2018-12-16T11:36:58.400Z,35.70
2018-12-16T11:37:59.731Z,37.00
2018-12-16T11:38:58.418Z,33.60
2018-12-16T11:39:58.423Z,34.10
2018-12-16T11:40:58.460Z,32.00
2018-12-16T11:41:58.445Z,32.60
2018-12-16T11:42:58.453Z,37.80
2018-12-16T11:43:58.462Z,33.90
2018-12-16T11:44:58.492Z,34.80
2018-12-16T11:45:58.481Z,36.30
2018-12-16T11:46:58.485Z,34.20
2018-12-16T11:47:58.502Z,34.70
2018-12-16T11:48:58.507Z,33.30
2018-12-16T11:49:58.524Z,34.70
2018-12-16T11:50:58.523Z,36.90
2018-12-16T11:51:58.535Z,34.00
2018-12-16T11:52:58.541Z,36.80
2018-12-16T11:53:58.552Z,33.40
2018-12-16T11:54:58.557Z,36.70
2018-12-16T11:55:58.571Z,35.40
2018-12-16T11:56:58.740Z,34.60
2018-12-16T11:57:58.657Z,35.70
2018-12-16T11:58:58.593Z,34.40
2018-12-16T11:59:58.603Z,35.10
2018-12-16T12:00:58.618Z,34.60
2018-12-16T12:01:58.625Z,35.70
2018-12-16T12:02:58.629Z,35.60
2018-12-16T12:03:58.641Z,34.70
2018-12-16T12:04:58.647Z,36.70
2018-12-16T12:05:58.659Z,35.50
2018-12-16T12:06:58.672Z,37.60
2018-12-16T12:07:58.681Z,37.30
2018-12-16T12:08:58.682Z,38.90
2018-12-16T12:09:58.691Z,33.70
2018-12-16T12:10:58.706Z,34.60
2018-12-16T12:11:58.708Z,34.90
2018-12-16T12:12:58.725Z,36.90
2018-12-16T12:13:58.728Z,36.50
2018-12-16T12:14:58.736Z,34.40
2018-12-16T12:15:58.905Z,35.90
2018-12-16T12:16:58.754Z,36.30
2018-12-16T12:17:58.761Z,36.30
2018-12-16T12:18:58.769Z,38.60
2018-12-16T12:19:58.784Z,37.60
2018-12-16T12:20:58.988Z,37.70
2018-12-16T12:22:04.394Z,35.30
2018-12-16T12:22:58.804Z,35.30
2018-12-16T12:23:58.813Z,38.10
2018-12-16T12:24:58.825Z,34.30
2018-12-16T12:25:58.833Z,34.50
2018-12-16T12:26:58.844Z,34.40
2018-12-16T12:27:58.851Z,37.20
2018-12-16T12:28:58.859Z,35.30
2018-12-16T12:29:58.871Z,37.40
2018-12-16T12:30:58.875Z,37.70
2018-12-16T12:31:58.886Z,34.30
2018-12-16T12:32:58.894Z,35.00
2018-12-16T12:33:58.905Z,38.00
2018-12-16T12:34:58.914Z,36.30
2018-12-16T12:35:58.925Z,34.30
2018-12-16T12:36:58.944Z,36.40
2018-12-16T12:37:58.942Z,37.50
2018-12-16T12:38:58.949Z,36.50
2018-12-16T12:39:58.961Z,35.90
2018-12-16T12:40:58.970Z,36.20
2018-12-16T12:41:58.977Z,34.90
2018-12-16T12:42:58.988Z,35.50
2018-12-16T12:43:58.996Z,35.20
2018-12-16T12:44:59.002Z,36.60
2018-12-16T12:45:59.111Z,34.60
2018-12-16T12:46:59.028Z,36.20
2018-12-16T12:47:59.034Z,36.10
2018-12-16T12:48:59.039Z,37.00
2018-12-16T12:49:59.057Z,34.10
2018-12-16T12:50:59.061Z,34.80
2018-12-16T12:51:59.143Z,39.30
2018-12-16T12:52:59.079Z,34.60
2018-12-16T12:53:59.087Z,37.30
2018-12-16T12:54:59.099Z,35.30
2018-12-16T12:55:59.102Z,36.80